Time;durP1;ratioP1;P1;durP2;ratioP2;P2;SDS_P1;SDS_P2;PMS_P1;PMS_P2;Temp;Humidity;BMP_temperature;BMP_pressure;BME280_temperature;BME280_humidity;BME280_pressure;Samples;Min_cycle;Max_cycle;Signal;HPM_P1;HPM_P2
2022/01/14 00:01:47;;;;;;;22.35;10.32;;;1.80;71.20;;;;;;2371068;54;20956;-67
2022/01/14 00:04:13;;;;;;;20.12;10.32;;;1.80;71.20;;;;;;2373770;54;21005;-70
2022/01/14 00:06:39;;;;;;;19.58;10.25;;;1.80;71.10;;;;;;2369313;53;21008;-68
2022/01/14 00:09:07;;;;;;;20.20;9.98;;;1.90;71.10;;;;;;2343239;53;21528;-67
2022/01/14 00:11:36;;;;;;;23.25;11.18;;;1.90;71.00;;;;;;2369019;53;21005;-68
2022/01/14 00:14:20;;;;;;;30.10;13.13;;;1.90;70.90;;;;;;2371607;54;20925;-70
2022/01/14 00:16:48;;;;;;;36.28;14.27;;;1.90;70.80;;;;;;2371569;54;20973;-68
2022/01/14 00:19:15;;;;;;;39.28;15.93;;;1.90;71.00;;;;;;2354294;53;21471;-66
2022/01/14 00:21:43;;;;;;;31.52;13.85;;;1.90;71.40;;;;;;2364135;53;20929;-70
2022/01/14 00:24:24;;;;;;;34.17;13.43;;;1.90;71.70;;;;;;2624258;52;20953;-66
2022/01/14 00:32:35;;;;;;;40.53;14.52;;;1.90;72.10;;;;;;2371087;54;21624;-68
2022/01/14 00:35:01;;;;;;;34.00;14.20;;;2.00;72.20;;;;;;2371587;53;20941;-67
2022/01/14 00:37:28;;;;;;;41.90;16.25;;;2.00;72.20;;;;;;2371555;54;20878;-68
2022/01/14 00:39:54;;;;;;;35.83;15.35;;;2.00;72.20;;;;;;2354029;53;20935;-67
2022/01/14 00:42:20;;;;;;;36.95;15.00;;;2.10;72.40;;;;;;2365341;53;20945;-68
2022/01/14 00:44:47;;;;;;;34.58;15.38;;;2.00;72.30;;;;;;2591178;52;20954;-70
2022/01/14 00:47:14;;;;;;;28.55;12.37;;;2.10;72.20;;;;;;2410874;53;20988;-67
2022/01/14 00:49:44;;;;;;;29.33;12.45;;;2.10;72.10;;;;;;2334078;54;21458;-71
2022/01/14 00:52:10;;;;;;;29.05;12.82;;;2.10;72.00;;;;;;2362298;53;21402;-67
2022/01/14 00:54:37;;;;;;;34.58;14.50;;;2.10;71.90;;;;;;2400492;52;20917;-69
2022/01/14 01:00:04;;;;;;;28.20;12.40;;;2.10;71.70;;;;;;2361371;53;20929;-69
2022/01/14 01:02:30;;;;;;;34.83;13.88;;;2.10;71.60;;;;;;2370370;53;20929;-70
2022/01/14 01:04:56;;;;;;;40.35;15.85;;;2.10;71.50;;;;;;2573745;52;20929;-70
2022/01/14 01:07:22;;;;;;;33.75;13.25;;;2.10;71.40;;;;;;2368323;53;21013;-72
2022/01/14 01:09:50;;;;;;;26.37;12.02;;;2.10;71.30;;;;;;2351241;53;21239;-68
2022/01/14 01:12:32;;;;;;;29.20;13.43;;;2.10;71.20;;;;;;2371415;53;20925;-67
2022/01/14 01:15:08;;;;;;;31.25;13.10;;;2.10;71.00;;;;;;2347229;53;21548;-69
2022/01/14 01:17:35;;;;;;;34.53;13.88;;;2.10;70.80;;;;;;2357352;53;21116;-68
2022/01/14 01:20:17;;;;;;;36.70;16.23;;;2.10;70.80;;;;;;2420618;52;20949;-70
2022/01/14 01:22:48;;;;;;;30.95;13.05;;;2.00;70.70;;;;;;2357776;53;20969;-71
2022/01/14 01:25:17;;;;;;;34.63;13.90;;;2.00;70.70;;;;;;2363274;53;20885;-67
2022/01/14 01:27:47;;;;;;;26.67;12.93;;;2.00;70.70;;;;;;2368289;53;21064;-69
2022/01/14 01:30:47;;;;;;;31.05;13.27;;;2.00;70.70;;;;;;2370271;53;20913;-69
2022/01/14 01:33:13;;;;;;;25.15;10.68;;;2.00;70.70;;;;;;2368671;53;21739;-70
2022/01/14 01:35:40;;;;;;;27.48;12.75;;;1.90;70.60;;;;;;2376235;52;21877;-69
2022/01/14 01:38:06;;;;;;;25.70;10.77;;;1.90;70.50;;;;;;2370997;53;21013;-67
2022/01/14 01:40:34;;;;;;;25.27;10.98;;;1.90;70.40;;;;;;2371485;54;20981;-68
2022/01/14 01:43:06;;;;;;;32.28;13.13;;;1.90;70.50;;;;;;2370545;54;20905;-67
2022/01/14 01:45:32;;;;;;;26.25;11.88;;;1.90;70.50;;;;;;2370713;54;20897;-68
2022/01/14 01:47:59;;;;;;;28.17;11.98;;;1.90;70.50;;;;;;2370613;54;20929;-69
2022/01/14 01:50:29;;;;;;;30.77;12.80;;;1.90;70.60;;;;;;2360529;53;20917;-69
2022/01/14 01:52:56;;;;;;;32.78;13.62;;;1.90;70.60;;;;;;2452941;53;20997;-68
2022/01/14 01:55:22;;;;;;;34.10;14.00;;;1.80;70.50;;;;;;2393451;53;20905;-68
2022/01/14 01:57:49;;;;;;;27.40;12.75;;;1.80;70.60;;;;;;2385081;52;21834;-67
2022/01/14 02:00:18;;;;;;;29.12;12.48;;;1.80;70.80;;;;;;2552571;52;21005;-70
2022/01/14 02:02:48;;;;;;;27.55;12.27;;;1.80;70.80;;;;;;2623751;52;21701;-70
2022/01/14 02:05:15;;;;;;;29.45;13.18;;;1.80;70.80;;;;;;2370803;54;20909;-68
2022/01/14 02:07:42;;;;;;;27.02;12.10;;;1.80;70.70;;;;;;2384320;52;21009;-68
2022/01/14 02:10:08;;;;;;;26.30;11.85;;;1.80;70.60;;;;;;2353986;53;20933;-69
2022/01/14 02:12:38;;;;;;;26.02;10.95;;;1.80;70.60;;;;;;2368357;53;20917;-66
2022/01/14 02:15:25;;;;;;;27.30;11.60;;;1.80;70.50;;;;;;2352959;53;20925;-69
2022/01/14 02:24:57;;;;;;;24.58;10.50;;;1.70;70.10;;;;;;2452682;52;20901;-69
2022/01/14 02:27:23;;;;;;;24.37;10.15;;;1.70;70.30;;;;;;2369962;54;20925;-70
2022/01/14 02:29:51;;;;;;;22.50;10.02;;;1.70;70.40;;;;;;2370731;53;20981;-70
2022/01/14 02:32:17;;;;;;;25.42;11.63;;;1.70;70.50;;;;;;2370978;53;20977;-71
2022/01/14 02:34:43;;;;;;;29.83;12.05;;;1.60;70.50;;;;;;2373155;53;21451;-68
2022/01/14 02:37:09;;;;;;;28.27;12.18;;;1.70;70.60;;;;;;2370675;54;21433;-67
2022/01/14 02:39:36;;;;;;;28.00;11.48;;;1.60;70.50;;;;;;2370993;54;20921;-70
2022/01/14 02:42:02;;;;;;;28.35;11.73;;;1.60;70.50;;;;;;2371101;53;21347;-70
2022/01/14 02:44:31;;;;;;;24.55;11.20;;;1.60;71.30;;;;;;2371289;54;21021;-69
2022/01/14 02:47:03;;;;;;;27.40;11.38;;;1.60;70.70;;;;;;2354998;53;21036;-69
2022/01/14 02:49:31;;;;;;;26.83;11.68;;;1.60;70.80;;;;;;2355018;53;20933;-66
2022/01/14 02:51:59;;;;;;;25.60;11.27;;;1.60;70.80;;;;;;2346463;53;20957;-69
2022/01/14 02:54:32;;;;;;;31.77;13.15;;;1.60;70.80;;;;;;2358995;53;20901;-67
2022/01/14 02:56:59;;;;;;;30.35;12.55;;;1.60;70.80;;;;;;2368924;53;20965;-69
2022/01/14 02:59:25;;;;;;;31.00;13.43;;;1.60;70.90;;;;;;2356267;53;21043;-71
2022/01/14 03:01:51;;;;;;;32.05;13.45;;;1.60;71.10;;;;;;2362972;52;20963;-68
2022/01/14 03:04:20;;;;;;;34.67;14.82;;;1.60;71.30;;;;;;2354781;53;21049;-66
2022/01/14 03:06:49;;;;;;;33.22;14.82;;;1.60;71.40;;;;;;2370133;53;20945;-71
2022/01/14 03:09:15;;;;;;;33.53;14.65;;;1.70;71.60;;;;;;2373948;53;20917;-70
2022/01/14 03:11:49;;;;;;;31.58;13.13;;;1.70;71.70;;;;;;2345837;53;21958;-68
2022/01/14 03:14:22;;;;;;;32.15;13.60;;;1.70;71.80;;;;;;2371749;54;21510;-69
2022/01/14 03:16:49;;;;;;;34.40;13.98;;;1.70;71.90;;;;;;2371034;53;20929;-68
2022/01/14 03:19:21;;;;;;;34.25;13.93;;;1.80;72.00;;;;;;2371966;53;20914;-69
2022/01/14 03:22:04;;;;;;;30.95;13.52;;;1.80;71.90;;;;;;2370445;53;20977;-69
2022/01/14 03:27:30;;;;;;;33.40;12.68;;;1.80;71.80;;;;;;2356131;53;21605;-70
2022/01/14 03:29:56;;;;;;;34.97;14.52;;;1.80;71.70;;;;;;2382063;52;21446;-68
2022/01/14 03:32:22;;;;;;;38.28;15.70;;;1.90;71.80;;;;;;2371401;54;21707;-67
2022/01/14 03:34:49;;;;;;;30.77;14.07;;;1.90;71.90;;;;;;2370903;53;21785;-67
2022/01/14 03:37:15;;;;;;;31.20;14.20;;;1.90;71.90;;;;;;2370787;53;21401;-68
2022/01/14 03:39:41;;;;;;;30.12;14.30;;;1.90;71.90;;;;;;2354513;53;21516;-67
2022/01/14 03:42:08;;;;;;;34.05;14.57;;;1.90;71.80;;;;;;2343515;53;21833;-69
2022/01/14 03:44:34;;;;;;;29.60;13.30;;;1.90;71.70;;;;;;2371030;54;21402;-67
2022/01/14 03:47:00;;;;;;;25.75;11.45;;;1.90;71.60;;;;;;2369477;53;20965;-67
2022/01/14 03:49:27;;;;;;;32.92;13.43;;;1.90;71.60;;;;;;2370888;53;21462;-68
2022/01/14 03:51:53;;;;;;;26.23;11.30;;;2.00;71.60;;;;;;2370087;54;20966;-67
2022/01/14 03:54:22;;;;;;;32.92;13.43;;;2.00;71.50;;;;;;2371413;53;21482;-70
2022/01/14 03:56:48;;;;;;;25.77;11.52;;;2.00;71.60;;;;;;2370858;54;20953;-69
2022/01/14 03:59:14;;;;;;;27.20;12.10;;;2.00;71.60;;;;;;2371085;54;20916;-70
2022/01/14 04:01:41;;;;;;;30.10;12.85;;;2.00;71.60;;;;;;2371397;54;20901;-68
2022/01/14 04:04:07;;;;;;;25.25;12.07;;;2.00;71.50;;;;;;2378657;52;21016;-66
2022/01/14 04:06:33;;;;;;;30.52;13.27;;;2.00;71.40;;;;;;2371216;53;20893;-68
2022/01/14 04:08:59;;;;;;;29.58;13.13;;;2.00;71.40;;;;;;2371433;54;21036;-70
2022/01/14 04:11:29;;;;;;;31.10;12.80;;;2.00;71.40;;;;;;2542206;52;20902;-69
2022/01/14 04:14:07;;;;;;;30.45;12.37;;;2.00;71.40;;;;;;2371272;54;20921;-67
2022/01/14 04:16:33;;;;;;;30.75;13.05;;;2.00;71.30;;;;;;2346435;53;20952;-70
2022/01/14 04:18:59;;;;;;;34.30;13.50;;;2.00;71.10;;;;;;2371256;54;20972;-67
2022/01/14 04:21:26;;;;;;;25.80;10.63;;;2.00;71.00;;;;;;2358786;53;20937;-67
2022/01/14 04:23:52;;;;;;;34.53;14.15;;;2.00;70.90;;;;;;2367013;53;21007;-69
2022/01/14 04:26:18;;;;;;;32.28;13.20;;;1.90;70.80;;;;;;2341827;53;20989;-69
2022/01/14 04:28:45;;;;;;;28.48;12.18;;;2.00;70.70;;;;;;2351322;53;20918;-67
2022/01/14 04:31:11;;;;;;;29.33;11.77;;;2.00;70.70;;;;;;2372004;54;20909;-67
2022/01/14 04:33:37;;;;;;;27.35;13.15;;;1.90;70.50;;;;;;2369944;53;20885;-69
2022/01/14 04:36:04;;;;;;;28.80;12.10;;;1.90;70.40;;;;;;2372118;53;21743;-69
2022/01/14 04:38:31;;;;;;;25.42;11.60;;;1.90;70.30;;;;;;2371055;54;20917;-66
2022/01/14 04:40:57;;;;;;;26.48;11.50;;;1.90;70.20;;;;;;2349401;53;21553;-69
2022/01/14 04:43:23;;;;;;;25.62;11.85;;;1.90;70.10;;;;;;2392001;53;20968;-69
2022/01/14 04:46:24;;;;;;;23.92;10.43;;;1.80;70.00;;;;;;2344648;53;20914;-69
2022/01/14 04:48:50;;;;;;;20.88;9.48;;;1.80;69.90;;;;;;2371087;54;21881;-70
2022/01/14 04:51:20;;;;;;;23.65;10.60;;;1.80;70.60;;;;;;2371344;54;20929;-68
2022/01/14 04:53:46;;;;;;;23.12;10.27;;;1.80;70.00;;;;;;2571270;52;20929;-69
2022/01/14 04:56:12;;;;;;;24.35;10.93;;;1.80;70.00;;;;;;2350322;53;20982;-70
2022/01/14 04:58:42;;;;;;;26.58;11.38;;;1.70;69.90;;;;;;2371419;54;20901;-67
2022/01/14 05:01:08;;;;;;;24.00;10.50;;;1.70;69.90;;;;;;2370883;54;21099;-68
2022/01/14 05:03:37;;;;;;;22.42;9.88;;;1.70;69.90;;;;;;2370533;54;21022;-69
2022/01/14 05:06:06;;;;;;;25.83;11.10;;;1.70;69.90;;;;;;2368783;53;21541;-69
2022/01/14 05:08:38;;;;;;;23.17;10.52;;;1.60;69.80;;;;;;2368919;53;20981;-68
2022/01/14 05:11:22;;;;;;;26.33;10.55;;;1.60;69.80;;;;;;2371379;54;20921;-70
2022/01/14 05:13:49;;;;;;;24.27;9.63;;;1.60;69.80;;;;;;2347986;53;20977;-69
2022/01/14 05:16:16;;;;;;;22.33;9.98;;;1.60;69.80;;;;;;2344279;54;20956;-69
2022/01/14 05:18:42;;;;;;;25.30;10.65;;;1.60;69.70;;;;;;2337876;54;21655;-69
2022/01/14 05:21:10;;;;;;;25.27;11.40;;;1.50;69.50;;;;;;2321199;54;20948;-70
2022/01/14 05:23:37;;;;;;;23.87;11.02;;;1.50;69.40;;;;;;2349071;53;1377900;-69
2022/01/14 05:26:04;;;;;;;19.05;9.32;;;1.50;69.40;;;;;;2338119;54;20944;-67
2022/01/14 05:28:30;;;;;;;22.50;10.65;;;1.40;69.20;;;;;;2337614;53;21025;-67
2022/01/14 05:30:57;;;;;;;24.17;11.30;;;1.40;69.20;;;;;;2609798;52;20965;-69
2022/01/14 05:33:23;;;;;;;22.27;10.55;;;1.40;69.20;;;;;;2426917;52;20906;-68
2022/01/14 05:35:50;;;;;;;19.60;8.95;;;1.30;69.20;;;;;;2417036;52;20910;-67
2022/01/14 05:38:17;;;;;;;21.27;10.70;;;1.30;69.30;;;;;;2370749;53;21001;-68
2022/01/14 05:40:44;;;;;;;24.65;10.35;;;1.30;69.40;;;;;;2370755;54;20898;-69
2022/01/14 05:43:10;;;;;;;20.08;9.77;;;1.30;69.50;;;;;;2345431;53;20961;-67
2022/01/14 05:45:36;;;;;;;22.15;11.12;;;1.20;69.50;;;;;;2358543;53;20932;-68
2022/01/14 05:48:04;;;;;;;23.62;11.15;;;1.20;69.50;;;;;;2360469;53;20985;-69
2022/01/14 05:50:31;;;;;;;22.80;11.77;;;1.20;69.60;;;;;;2370534;54;21037;-67
2022/01/14 05:52:57;;;;;;;22.50;11.05;;;1.20;69.60;;;;;;2370984;54;20926;-68
2022/01/14 05:55:23;;;;;;;23.38;11.27;;;1.20;69.60;;;;;;2463848;52;20900;-70
2022/01/14 05:57:50;;;;;;;21.77;11.73;;;1.20;69.60;;;;;;2418433;52;20984;-69
2022/01/14 06:00:18;;;;;;;23.65;11.35;;;1.10;69.60;;;;;;2371431;54;21438;-70
2022/01/14 06:02:48;;;;;;;20.55;10.50;;;1.10;69.50;;;;;;2371405;53;20909;-68
2022/01/14 06:05:14;;;;;;;25.50;11.25;;;1.10;69.50;;;;;;2368677;53;20991;-71
2022/01/14 06:07:43;;;;;;;21.45;10.70;;;1.10;69.40;;;;;;2512392;53;20992;-68
2022/01/14 06:10:09;;;;;;;21.95;10.20;;;1.10;69.40;;;;;;2370719;53;20941;-69
2022/01/14 06:12:37;;;;;;;23.02;10.95;;;1.00;69.20;;;;;;2370945;54;20905;-67
2022/01/14 06:15:04;;;;;;;26.00;10.55;;;1.00;69.20;;;;;;2369415;53;21875;-69
2022/01/14 06:17:30;;;;;;;24.00;11.70;;;1.00;69.20;;;;;;2453189;52;21041;-69
2022/01/14 06:19:57;;;;;;;24.12;10.82;;;1.00;69.20;;;;;;2370485;53;21748;-68
2022/01/14 06:22:23;;;;;;;22.70;10.32;;;1.00;69.20;;;;;;2371505;54;21789;-67
2022/01/14 06:24:49;;;;;;;20.62;10.07;;;0.90;69.20;;;;;;2361747;53;21306;-67
2022/01/14 06:27:17;;;;;;;21.15;10.10;;;0.90;69.20;;;;;;2412735;53;20997;-67
2022/01/14 06:29:43;;;;;;;24.95;11.02;;;0.90;69.20;;;;;;2371611;54;20977;-70
2022/01/14 06:32:09;;;;;;;31.85;13.93;;;0.80;69.20;;;;;;2370947;54;20977;-69
2022/01/14 06:34:35;;;;;;;37.63;14.98;;;0.80;69.30;;;;;;2423620;52;20877;-70
2022/01/14 06:37:02;;;;;;;32.00;14.65;;;0.80;69.40;;;;;;2370947;54;20909;-69
2022/01/14 06:39:28;;;;;;;34.33;13.57;;;0.80;69.40;;;;;;2371101;53;20917;-69
2022/01/14 06:41:54;;;;;;;36.67;14.77;;;0.80;69.40;;;;;;2349469;53;20940;-69
2022/01/14 06:44:21;;;;;;;32.78;13.10;;;0.80;69.40;;;;;;2354152;53;20938;-67
2022/01/14 06:46:50;;;;;;;33.45;13.88;;;0.80;69.50;;;;;;2480186;52;20914;-69
2022/01/14 06:49:16;;;;;;;28.08;12.05;;;0.70;69.40;;;;;;2371182;53;20925;-70
2022/01/14 06:51:43;;;;;;;30.00;12.48;;;0.70;69.50;;;;;;2370887;54;21505;-69
2022/01/14 06:54:09;;;;;;;31.35;13.02;;;0.70;69.60;;;;;;2371126;54;21009;-68
2022/01/14 06:56:38;;;;;;;34.95;14.68;;;0.70;69.60;;;;;;2371007;54;20997;-69
2022/01/14 06:59:06;;;;;;;40.22;15.20;;;0.70;69.60;;;;;;2348170;53;20905;-67
2022/01/14 07:01:32;;;;;;;38.50;14.75;;;0.70;69.60;;;;;;2348129;54;20940;-69
2022/01/14 07:03:58;;;;;;;34.78;14.13;;;0.70;69.50;;;;;;2541267;52;21391;-67
2022/01/14 07:06:25;;;;;;;34.10;14.30;;;0.70;70.20;;;;;;2370609;54;21387;-68
2022/01/14 07:08:53;;;;;;;32.03;14.57;;;0.60;69.40;;;;;;2377837;52;20921;-65
2022/01/14 07:11:19;;;;;;;32.30;13.65;;;0.60;69.40;;;;;;2444526;52;20914;-71
2022/01/14 07:13:45;;;;;;;34.08;13.55;;;0.60;69.40;;;;;;2371780;54;20885;-70
2022/01/14 07:16:14;;;;;;;32.45;14.38;;;0.60;69.50;;;;;;2370848;54;20953;-67
2022/01/14 07:18:45;;;;;;;34.63;14.43;;;0.60;69.50;;;;;;2371168;53;20897;-68
2022/01/14 07:21:11;;;;;;;29.42;13.40;;;0.60;69.50;;;;;;2370941;54;20932;-68
2022/01/14 07:23:37;;;;;;;33.35;14.18;;;0.60;69.40;;;;;;2623274;52;20933;-69
2022/01/14 07:26:03;;;;;;;31.55;13.23;;;0.60;69.40;;;;;;2371211;54;20909;-70
2022/01/14 07:28:30;;;;;;;26.48;12.00;;;0.60;69.50;;;;;;2371582;54;20905;-69
2022/01/14 07:30:56;;;;;;;29.48;11.90;;;0.60;69.50;;;;;;2371054;54;20917;-68
2022/01/14 07:33:25;;;;;;;25.58;11.70;;;0.60;69.60;;;;;;2405568;52;20960;-68
2022/01/14 07:35:55;;;;;;;33.00;14.13;;;0.60;69.50;;;;;;2361033;53;21020;-67
2022/01/14 07:38:21;;;;;;;35.55;14.55;;;0.60;69.60;;;;;;2451974;52;20989;-69
2022/01/14 07:40:48;;;;;;;32.95;13.25;;;0.50;69.60;;;;;;2343626;53;20932;-69
2022/01/14 07:43:14;;;;;;;34.83;14.93;;;0.50;69.70;;;;;;2371463;53;20929;-69
2022/01/14 07:45:40;;;;;;;31.58;14.25;;;0.50;69.80;;;;;;2517925;52;20961;-68
2022/01/14 07:48:07;;;;;;;36.58;17.65;;;0.50;69.90;;;;;;2371447;54;20901;-70
2022/01/14 07:50:35;;;;;;;37.65;18.42;;;0.60;70.10;;;;;;2371192;54;21327;-70
2022/01/14 07:53:01;;;;;;;40.10;17.73;;;0.60;70.20;;;;;;2371621;54;20917;-69
2022/01/14 07:55:29;;;;;;;35.38;15.93;;;0.60;70.30;;;;;;2371174;54;22509;-70
2022/01/14 07:57:56;;;;;;;35.53;15.85;;;0.60;70.40;;;;;;2371244;53;20925;-70
2022/01/14 08:00:22;;;;;;;41.35;18.45;;;0.60;70.50;;;;;;2347715;53;21033;-69
2022/01/14 08:02:49;;;;;;;36.03;17.23;;;0.60;70.50;;;;;;2362846;53;21000;-69
2022/01/14 08:05:16;;;;;;;38.05;17.77;;;0.60;70.60;;;;;;2345505;53;20965;-68
2022/01/14 08:07:47;;;;;;;40.00;17.62;;;0.70;70.70;;;;;;2374705;53;21447;-69
2022/01/14 08:10:13;;;;;;;42.75;19.95;;;0.70;70.80;;;;;;2368674;53;20941;-68
2022/01/14 08:12:41;;;;;;;40.55;20.15;;;0.70;70.90;;;;;;2371386;54;21501;-67
2022/01/14 08:15:08;;;;;;;34.38;17.05;;;0.70;70.90;;;;;;2371139;54;20926;-70
2022/01/14 08:17:35;;;;;;;31.75;16.42;;;0.70;70.90;;;;;;2348165;53;21722;-68
2022/01/14 08:20:01;;;;;;;30.98;15.68;;;0.80;70.90;;;;;;2373306;53;21415;-67
2022/01/14 08:22:28;;;;;;;30.15;15.55;;;0.80;70.90;;;;;;2370467;53;21278;-69
2022/01/14 08:24:55;;;;;;;24.83;13.82;;;0.80;71.00;;;;;;2347404;53;21025;-67
2022/01/14 08:27:21;;;;;;;28.08;14.55;;;0.80;71.10;;;;;;2371598;53;20981;-68
2022/01/14 08:29:47;;;;;;;32.45;16.02;;;0.80;71.20;;;;;;2505110;52;21020;-67
2022/01/14 08:32:14;;;;;;;37.53;16.02;;;0.90;71.50;;;;;;2371610;54;20929;-65
2022/01/14 08:34:40;;;;;;;28.70;15.00;;;0.90;71.60;;;;;;2366964;53;20949;-68
2022/01/14 08:37:07;;;;;;;34.40;15.07;;;0.90;71.70;;;;;;2349630;53;21021;-68
2022/01/14 08:39:36;;;;;;;36.97;15.05;;;1.00;71.80;;;;;;2380801;52;21430;-70
2022/01/14 08:42:04;;;;;;;36.97;14.87;;;1.00;71.90;;;;;;2347840;53;21041;-68
2022/01/14 08:44:31;;;;;;;41.80;15.30;;;1.10;72.00;;;;;;2513863;52;21034;-67
2022/01/14 08:46:57;;;;;;;33.53;14.65;;;1.10;72.00;;;;;;2347988;53;21395;-67
2022/01/14 08:49:23;;;;;;;24.63;11.60;;;1.10;72.00;;;;;;2374632;52;20967;-68
2022/01/14 08:51:49;;;;;;;30.25;14.48;;;1.20;72.00;;;;;;2345544;53;21304;-69
2022/01/14 08:54:16;;;;;;;35.97;15.00;;;1.20;72.10;;;;;;2518871;52;20949;-69
2022/01/14 08:56:45;;;;;;;30.50;14.43;;;1.30;72.30;;;;;;2370597;53;20915;-67
2022/01/14 08:59:14;;;;;;;34.38;14.87;;;1.30;72.30;;;;;;2348079;54;21036;-68
2022/01/14 09:01:42;;;;;;;34.78;14.65;;;1.40;72.50;;;;;;2370795;53;21453;-68
2022/01/14 09:04:08;;;;;;;32.35;14.77;;;1.40;72.50;;;;;;2371473;54;20913;-68
2022/01/14 09:06:34;;;;;;;37.78;14.18;;;1.50;72.80;;;;;;2370491;53;20933;-71
2022/01/14 09:09:06;;;;;;;26.05;13.20;;;1.60;72.90;;;;;;2371558;53;20914;-68
2022/01/14 09:11:33;;;;;;;26.87;12.75;;;1.60;72.70;;;;;;2346964;53;20996;-68
2022/01/14 09:14:03;;;;;;;26.33;13.38;;;1.70;72.70;;;;;;2371143;54;20910;-69
2022/01/14 09:16:29;;;;;;;22.87;11.57;;;1.70;72.70;;;;;;2371036;54;20918;-68
2022/01/14 09:18:56;;;;;;;24.95;12.73;;;1.80;72.80;;;;;;2373788;54;20929;-68
2022/01/14 09:21:22;;;;;;;26.23;13.27;;;1.80;72.70;;;;;;2341668;53;20956;-70
2022/01/14 09:24:03;;;;;;;34.33;14.80;;;1.90;72.80;;;;;;2364703;54;20905;-71
2022/01/14 09:26:33;;;;;;;31.87;14.75;;;1.90;73.00;;;;;;2370295;53;20925;-69
2022/01/14 09:28:59;;;;;;;27.50;13.95;;;2.00;73.00;;;;;;2371701;53;20933;-69
2022/01/14 09:31:26;;;;;;;31.73;14.65;;;2.10;73.20;;;;;;2405384;52;20993;-69
2022/01/14 09:33:52;;;;;;;29.40;13.95;;;2.20;73.40;;;;;;2370587;54;20898;-67
2022/01/14 09:36:18;;;;;;;33.20;15.40;;;2.20;73.50;;;;;;2361888;53;21485;-67
2022/01/14 09:38:45;;;;;;;31.20;15.32;;;2.30;73.60;;;;;;2346850;53;20889;-68
2022/01/14 09:41:11;;;;;;;32.47;16.27;;;2.30;73.50;;;;;;2349531;53;21017;-71
2022/01/14 09:43:39;;;;;;;35.55;17.45;;;2.40;73.50;;;;;;2368629;53;20909;-71
2022/01/14 09:46:06;;;;;;;31.62;15.80;;;2.50;73.50;;;;;;2372815;54;20898;-68
2022/01/14 09:48:35;;;;;;;30.77;16.73;;;2.50;73.10;;;;;;2355145;53;20952;-68
2022/01/14 09:51:02;;;;;;;33.13;17.70;;;2.60;72.90;;;;;;2361261;53;20913;-67
2022/01/14 09:53:28;;;;;;;28.42;15.75;;;2.60;72.70;;;;;;2371540;54;20933;-67
2022/01/14 09:55:57;;;;;;;31.35;15.75;;;2.70;72.60;;;;;;2563244;52;20893;-69
2022/01/14 09:58:24;;;;;;;28.75;14.43;;;2.70;72.70;;;;;;2371528;54;20989;-68
2022/01/14 10:00:50;;;;;;;29.67;14.73;;;2.70;72.60;;;;;;2522294;52;20893;-72
2022/01/14 10:03:23;;;;;;;29.00;14.68;;;2.70;73.30;;;;;;2624018;52;20889;-70
2022/01/14 10:05:53;;;;;;;32.72;15.70;;;2.80;72.80;;;;;;2370855;54;20945;-68
2022/01/14 10:08:29;;;;;;;26.17;14.25;;;2.80;73.20;;;;;;2467990;53;21722;-68
2022/01/14 10:10:59;;;;;;;31.25;16.25;;;2.90;74.50;;;;;;2338900;54;20976;-69
2022/01/14 10:13:27;;;;;;;31.90;17.80;;;3.10;76.90;;;;;;2338660;55;20964;-67
2022/01/14 10:16:43;;;;;;;26.05;14.38;;;3.40;79.10;;;;;;2338833;54;20968;-69
2022/01/14 10:19:27;;;;;;;21.25;12.52;;;3.80;80.70;;;;;;2352505;53;20958;-67
2022/01/14 10:21:53;;;;;;;20.88;12.13;;;4.20;81.20;;;;;;2337993;54;20987;-69
2022/01/14 10:24:20;;;;;;;23.08;13.98;;;4.50;80.50;;;;;;2338771;54;20929;-70
2022/01/14 10:26:52;;;;;;;20.45;11.27;;;4.80;79.90;;;;;;2338098;53;20951;-70
2022/01/14 10:29:38;;;;;;;18.50;11.53;;;4.90;79.00;;;;;;2339502;53;20924;-67
2022/01/14 10:32:08;;;;;;;17.15;10.20;;;5.10;77.90;;;;;;2338499;53;20980;-69
2022/01/14 10:34:34;;;;;;;16.75;10.52;;;5.30;77.80;;;;;;2338514;53;20956;-71
2022/01/14 10:37:14;;;;;;;21.08;11.55;;;5.40;77.30;;;;;;2338606;53;20940;-69
2022/01/14 10:39:48;;;;;;;20.05;11.23;;;5.50;76.00;;;;;;2350672;53;20957;-68
2022/01/14 10:43:15;;;;;;;18.73;11.25;;;5.60;75.40;;;;;;2375913;53;20948;-67
2022/01/14 10:45:51;;;;;;;15.63;9.55;;;5.70;73.60;;;;;;2317425;54;20942;-67
2022/01/14 10:48:31;;;;;;;15.82;9.88;;;5.70;74.00;;;;;;2312437;54;20933;-68
2022/01/14 10:50:59;;;;;;;15.57;10.20;;;5.70;73.30;;;;;;2333763;54;20975;-67
2022/01/14 10:53:39;;;;;;;17.80;10.85;;;5.70;73.30;;;;;;2420087;53;20961;-70
2022/01/14 10:56:09;;;;;;;18.48;10.32;;;5.60;73.80;;;;;;2379432;53;20989;-67
2022/01/14 10:58:40;;;;;;;16.05;10.15;;;5.70;74.90;;;;;;2371254;54;20952;-68
2022/01/14 11:01:15;;;;;;;18.05;11.12;;;5.90;76.80;;;;;;2370989;54;20960;-70
2022/01/14 11:03:52;;;;;;;18.12;10.82;;;6.10;78.60;;;;;;2372248;53;21025;-69
2022/01/14 11:06:29;;;;;;;17.52;11.10;;;6.40;79.40;;;;;;2369821;53;20929;-67
2022/01/14 11:09:17;;;;;;;16.85;11.12;;;6.70;80.20;;;;;;2433476;53;21051;-66
2022/01/14 11:11:45;;;;;;;16.17;10.02;;;7.00;80.20;;;;;;2338474;54;20972;-68
2022/01/14 11:14:14;;;;;;;18.20;11.35;;;7.30;79.20;;;;;;2417753;53;20998;-68
2022/01/14 11:16:40;;;;;;;18.65;11.50;;;7.50;78.00;;;;;;2338583;54;20958;-69
2022/01/14 11:19:08;;;;;;;19.33;12.27;;;7.60;76.40;;;;;;2354912;54;21440;-67
2022/01/14 11:24:23;;;;;;;21.60;12.63;;;7.70;73.20;;;;;;2571413;53;20931;-68
2022/01/14 11:26:50;;;;;;;19.65;12.43;;;7.60;72.10;;;;;;2330870;53;20984;-70
2022/01/14 11:29:18;;;;;;;19.50;12.80;;;7.60;71.40;;;;;;2461503;52;20925;-67
2022/01/14 11:31:44;;;;;;;19.80;12.57;;;7.50;70.60;;;;;;2372202;53;21003;-70
2022/01/14 11:34:29;;;;;;;18.95;12.02;;;7.30;70.00;;;;;;2329645;53;20925;-68
2022/01/14 11:37:00;;;;;;;20.00;11.45;;;7.20;70.50;;;;;;2308805;54;20940;-69
2022/01/14 11:39:31;;;;;;;19.00;11.82;;;7.10;69.50;;;;;;2316577;53;20953;-70
2022/01/14 11:42:08;;;;;;;21.15;12.80;;;7.00;69.50;;;;;;2305760;55;20967;-69
2022/01/14 11:45:12;;;;;;;20.37;11.93;;;6.90;69.10;;;;;;2311771;53;21019;-69
2022/01/14 11:47:48;;;;;;;;;;;6.80;68.80;;;;;;2316568;54;20963;-67
2022/01/14 11:50:47;;;;;;;17.50;10.43;;;6.70;68.60;;;;;;2320137;54;20114;-69
2022/01/14 11:53:33;;;;;;;19.55;11.82;;;6.60;69.20;;;;;;2339924;54;20948;-66
2022/01/14 11:56:00;;;;;;;24.37;13.48;;;6.60;69.70;;;;;;2335529;54;21006;-69
2022/01/14 11:58:29;;;;;;;24.73;14.82;;;6.50;70.50;;;;;;2360821;53;21440;-70
2022/01/14 12:00:55;;;;;;;27.10;15.45;;;6.50;71.20;;;;;;2349495;53;21753;-70
2022/01/14 12:03:26;;;;;;;25.55;14.18;;;6.50;72.00;;;;;;2386423;52;21522;-67
2022/01/14 12:05:57;;;;;;;27.80;14.87;;;6.60;72.40;;;;;;2364366;53;21153;-68
2022/01/14 12:08:36;;;;;;;25.10;15.23;;;6.60;72.40;;;;;;2393197;52;21423;-71
2022/01/14 12:11:24;;;;;;;24.08;13.57;;;6.70;72.90;;;;;;2367383;54;21627;-69
2022/01/14 12:14:00;;;;;;;21.58;13.15;;;6.80;73.00;;;;;;2458353;52;21661;-69
2022/01/14 12:16:59;;;;;;;21.08;12.55;;;7.00;73.80;;;;;;2354860;53;20994;-68
2022/01/14 12:20:03;;;;;;;22.87;13.90;;;7.10;73.60;;;;;;2362234;54;20948;-69
2022/01/14 12:22:29;;;;;;;;;;;7.20;72.70;;;;;;2363870;54;21008;-69
2022/01/14 12:24:58;;;;;;;21.67;12.30;;;7.30;71.50;;;;;;2601598;52;20442;-70
2022/01/14 12:27:25;;;;;;;22.42;13.50;;;7.30;73.20;;;;;;2366518;54;20916;-66
2022/01/14 12:30:07;;;;;;;20.17;12.93;;;7.40;73.00;;;;;;2441955;52;21031;-69
2022/01/14 12:32:38;;;;;;;21.48;13.55;;;7.50;72.50;;;;;;2366287;54;20944;-68
2022/01/14 12:35:09;;;;;;;20.95;13.35;;;7.60;72.60;;;;;;2366618;54;20964;-69
2022/01/14 12:37:50;;;;;;;24.92;13.05;;;7.60;72.20;;;;;;2347139;54;20956;-66
2022/01/14 12:40:31;;;;;;;20.30;12.85;;;7.70;71.70;;;;;;2396086;52;21078;-71
2022/01/14 12:42:59;;;;;;;19.42;12.20;;;7.70;71.90;;;;;;2366704;54;21740;-71
2022/01/14 12:45:51;;;;;;;23.05;14.05;;;7.80;71.90;;;;;;2485236;52;20931;-68
2022/01/14 12:48:46;;;;;;;17.80;11.48;;;7.80;71.20;;;;;;2366219;53;20932;-66
2022/01/14 12:51:17;;;;;;;16.83;10.77;;;7.90;70.50;;;;;;2367224;54;20943;-70
2022/01/14 12:53:54;;;;;;;19.90;12.48;;;7.90;70.80;;;;;;2366746;54;20955;-69
2022/01/14 12:56:24;;;;;;;18.55;11.82;;;8.00;70.70;;;;;;2366443;54;20955;-67
2022/01/14 12:58:55;;;;;;;17.60;11.35;;;8.10;71.60;;;;;;2366668;53;20955;-67
2022/01/14 13:01:53;;;;;;;19.00;12.82;;;8.20;71.80;;;;;;2366195;54;21028;-67
2022/01/14 13:04:20;;;;;;;16.00;10.65;;;8.30;71.00;;;;;;2366737;54;21388;-69
2022/01/14 13:06:54;;;;;;;16.27;11.18;;;8.40;71.00;;;;;;2366623;54;20970;-70
2022/01/14 13:09:25;;;;;;;19.48;13.30;;;8.40;70.70;;;;;;2367012;53;21458;-69
2022/01/14 13:11:58;;;;;;;22.50;12.93;;;8.50;70.60;;;;;;2366015;53;21430;-68
2022/01/14 13:14:24;;;;;;;;;;;8.70;70.70;;;;;;2366387;54;21004;-67